createdAt,value
2018-04-28T00:02:20.997Z,15.99
2018-04-28T00:04:47.464Z,16.12
2018-04-28T00:07:13.926Z,16.05
2018-04-28T00:09:41.069Z,16.02
2018-04-28T00:12:07.613Z,16.02
2018-04-28T00:14:34.920Z,16.03
2018-04-28T00:17:02.416Z,15.97
2018-04-28T00:19:29.907Z,15.84
2018-04-28T00:21:56.462Z,15.71
2018-04-28T00:24:23.953Z,15.67
2018-04-28T00:26:57.832Z,15.59
2018-04-28T00:29:24.225Z,15.53
2018-04-28T00:31:54.294Z,15.43
2018-04-28T00:34:21.737Z,15.38
2018-04-28T00:36:59.260Z,15.37
2018-04-28T00:39:25.676Z,15.36
2018-04-28T00:41:52.239Z,15.23
2018-04-28T00:44:21.773Z,15.15
2018-04-28T00:46:52.026Z,15.02
2018-04-28T00:49:18.512Z,14.89
2018-04-28T00:51:47.745Z,14.79
2018-04-28T00:54:17.964Z,14.81
2018-04-28T00:56:56.526Z,14.84
2018-04-28T00:59:23.035Z,14.85
2018-04-28T01:01:58.596Z,14.81
2018-04-28T01:04:40.589Z,14.82
2018-04-28T01:07:07.052Z,14.90
2018-04-28T01:09:35.017Z,14.87
2018-04-28T01:12:01.509Z,14.89
2018-04-28T01:14:47.831Z,14.96
2018-04-28T01:17:22.100Z,15.08
2018-04-28T01:22:51.586Z,15.21
2018-04-28T01:25:25.987Z,15.14
2018-04-28T01:27:54.520Z,15.15
2018-04-28T01:36:49.567Z,15.22
2018-04-28T01:39:30.979Z,15.18
2018-04-28T01:44:58.173Z,15.30
2018-04-28T01:47:24.625Z,15.34
2018-04-28T01:49:51.989Z,15.30
2018-04-28T01:52:21.236Z,15.35
2018-04-28T01:57:50.771Z,15.37
2018-04-28T02:00:24.917Z,15.43
2018-04-28T02:02:54.285Z,15.46
2018-04-28T02:08:21.069Z,15.39
2018-04-28T02:10:53.515Z,15.38
2018-04-28T02:13:28.928Z,15.38
2018-04-28T02:16:01.411Z,15.43
2018-04-28T02:18:36.910Z,15.43
2018-04-28T02:24:25.058Z,15.33
2018-04-28T02:26:52.398Z,15.30
2018-04-28T02:29:21.610Z,15.24
2018-04-28T02:31:52.955Z,15.21
2018-04-28T02:43:21.968Z,15.20
2018-04-28T02:45:52.327Z,15.14
2018-04-28T02:51:29.183Z,15.25
2018-04-28T02:53:58.206Z,15.29
2018-04-28T02:56:28.261Z,15.26
2018-04-28T02:58:55.505Z,15.39
2018-04-28T03:01:43.142Z,15.45
2018-04-28T03:04:14.451Z,15.37
2018-04-28T03:06:54.881Z,15.43
2018-04-28T03:09:26.709Z,15.39
2018-04-28T03:11:59.541Z,15.41
2018-04-28T03:14:26.047Z,15.41
2018-04-28T03:16:59.926Z,15.47
2018-04-28T03:19:33.204Z,15.55
2018-04-28T03:21:59.661Z,15.52
2018-04-28T03:27:50.569Z,15.41
2018-04-28T03:30:31.926Z,15.37
2018-04-28T03:33:01.191Z,15.52
2018-04-28T03:38:42.744Z,15.34
2018-04-28T03:41:21.597Z,15.34
2018-04-28T03:44:06.940Z,15.37
2018-04-28T03:46:36.191Z,15.32
2018-04-28T03:49:19.865Z,15.33
2018-04-28T03:54:55.574Z,15.23
2018-04-28T04:00:50.736Z,14.85
2018-04-28T04:03:22.415Z,14.86
2018-04-28T04:08:53.285Z,14.83
2018-04-28T04:11:41.381Z,14.87
2018-04-28T04:14:14.267Z,14.82
2018-04-28T04:22:56.619Z,14.65
2018-04-28T04:29:01.718Z,14.60
2018-04-28T04:31:37.091Z,14.53
2018-04-28T04:36:59.261Z,14.61
2018-04-28T04:39:56.531Z,14.78
2018-04-28T04:42:31.785Z,14.52
2018-04-28T04:45:06.271Z,14.50
2018-04-28T04:47:38.798Z,14.70
2018-04-28T04:56:11.712Z,14.85
2018-04-28T04:58:49.213Z,14.89
2018-04-28T05:01:34.268Z,14.91
2018-04-28T05:10:43.606Z,15.21
2018-04-28T05:16:23.176Z,15.31
2018-04-28T05:19:00.358Z,15.44
2018-04-28T05:31:01.994Z,15.80
2018-04-28T05:36:38.750Z,16.04
2018-04-28T05:39:31.618Z,15.95
2018-04-28T05:49:02.675Z,16.44
2018-04-28T05:55:16.009Z,16.35
2018-04-28T06:04:30.988Z,16.49
2018-04-28T06:13:35.045Z,16.43
2018-04-28T06:16:12.448Z,16.32
2018-04-28T06:18:57.374Z,16.22
2018-04-28T06:21:23.753Z,16.17
2018-04-28T06:23:50.342Z,16.17
2018-04-28T06:26:16.905Z,16.15
2018-04-28T06:28:44.112Z,16.15
2018-04-28T06:31:10.629Z,15.96
2018-04-28T06:33:37.451Z,15.87
2018-04-28T06:36:03.866Z,15.93
2018-04-28T06:38:31.041Z,15.97
2018-04-28T06:40:57.478Z,15.91
2018-04-28T06:43:23.902Z,15.75
2018-04-28T06:45:50.345Z,15.82
2018-04-28T06:48:16.741Z,15.94
2018-04-28T06:50:43.286Z,15.83
2018-04-28T06:53:10.426Z,15.68
2018-04-28T06:55:38.333Z,15.57
2018-04-28T06:58:04.750Z,15.86
2018-04-28T07:00:31.720Z,15.93
2018-04-28T07:02:58.109Z,15.98
2018-04-28T07:05:25.439Z,16.27
2018-04-28T07:07:51.887Z,16.38
2018-04-28T07:10:18.474Z,16.45
2018-04-28T07:12:44.855Z,16.59
2018-04-28T07:15:13.056Z,16.56
2018-04-28T07:17:40.833Z,16.97
2018-04-28T07:20:07.370Z,16.93
2018-04-28T07:22:36.484Z,16.93
2018-04-28T07:25:02.957Z,16.76
2018-04-28T07:27:29.379Z,16.89
2018-04-28T07:29:57.367Z,16.97
2018-04-28T07:32:23.934Z,17.14
2018-04-28T07:34:50.355Z,17.17
2018-04-28T07:37:16.925Z,17.03
2018-04-28T07:39:43.426Z,16.88
2018-04-28T07:42:09.852Z,16.95
2018-04-28T07:44:37.189Z,16.94
2018-04-28T07:47:03.760Z,17.03
2018-04-28T07:49:30.220Z,17.36
2018-04-28T07:51:56.914Z,18.06
2018-04-28T07:54:24.169Z,18.42
2018-04-28T07:56:51.282Z,18.84
2018-04-28T07:59:17.744Z,19.58
2018-04-28T08:01:44.945Z,19.00
2018-04-28T08:04:11.403Z,19.50
2018-04-28T08:06:38.529Z,19.55
2018-04-28T08:09:04.941Z,19.45
2018-04-28T08:11:31.521Z,19.23
2018-04-28T08:13:57.934Z,18.66
2018-04-28T08:16:24.357Z,18.42
2018-04-28T08:18:50.996Z,18.07
2018-04-28T08:21:17.700Z,17.99
2018-04-28T08:23:44.180Z,18.36
2018-04-28T08:26:10.594Z,18.19
2018-04-28T08:28:37.334Z,18.21
2018-04-28T08:31:04.154Z,18.14
2018-04-28T08:33:30.574Z,18.16
2018-04-28T08:35:57.792Z,18.28
2018-04-28T08:38:24.413Z,18.00
2018-04-28T08:40:51.021Z,17.69
2018-04-28T08:43:32.353Z,17.53
2018-04-28T08:45:59.130Z,17.61
2018-04-28T08:48:25.550Z,17.86
2018-04-28T08:50:52.716Z,18.10
2018-04-28T08:53:19.133Z,18.04
2018-04-28T08:55:46.449Z,17.89
2018-04-28T08:58:12.864Z,18.14
2018-04-28T09:00:48.209Z,18.01
2018-04-28T09:03:14.635Z,17.99
2018-04-28T09:05:42.798Z,18.05
2018-04-28T09:08:10.414Z,18.06
2018-04-28T09:10:38.742Z,18.11
2018-04-28T09:13:05.266Z,18.11
2018-04-28T09:15:31.613Z,17.99
2018-04-28T09:17:59.598Z,17.82
2018-04-28T09:20:27.167Z,17.52
2018-04-28T09:22:53.582Z,17.41
2018-04-28T09:25:20.017Z,17.38
2018-04-28T09:27:46.519Z,17.35
2018-04-28T09:30:14.225Z,17.49
2018-04-28T09:32:41.927Z,17.64
2018-04-28T09:35:10.880Z,17.64
2018-04-28T09:37:38.930Z,17.73
2018-04-28T09:40:05.345Z,17.49
2018-04-28T09:42:31.841Z,17.27
2018-04-28T09:44:58.502Z,17.04
2018-04-28T09:47:24.967Z,17.14
2018-04-28T09:49:51.424Z,16.98
2018-04-28T09:52:17.941Z,17.05
2018-04-28T09:54:44.440Z,17.29
2018-04-28T09:57:10.926Z,17.72
2018-04-28T09:59:37.394Z,17.93
2018-04-28T10:02:10.593Z,17.96
2018-04-28T10:04:37.693Z,18.07
2018-04-28T10:07:04.165Z,18.17
2018-04-28T10:09:31.750Z,18.56
2018-04-28T10:11:58.256Z,18.85
2018-04-28T10:14:24.703Z,19.14
2018-04-28T10:16:51.855Z,19.05
2018-04-28T10:19:18.994Z,18.93
2018-04-28T10:21:45.399Z,19.06
2018-04-28T10:24:11.817Z,19.14
2018-04-28T10:26:38.282Z,19.50
2018-04-28T10:29:04.750Z,19.82
2018-04-28T10:31:31.589Z,19.48
2018-04-28T10:33:58.755Z,19.32
2018-04-28T10:36:25.389Z,19.16
2018-04-28T10:38:51.757Z,19.66
2018-04-28T10:41:18.120Z,20.43
2018-04-28T10:43:45.238Z,20.64
2018-04-28T10:46:11.674Z,20.40
2018-04-28T10:48:38.040Z,21.26
2018-04-28T10:51:05.513Z,21.42
2018-04-28T10:53:31.974Z,20.93
2018-04-28T10:55:59.180Z,20.72
2018-04-28T10:58:26.388Z,20.33
2018-04-28T11:00:52.757Z,20.23
2018-04-28T11:03:19.917Z,20.68
2018-04-28T11:05:47.039Z,20.73
2018-04-28T11:08:13.496Z,21.01
2018-04-28T11:10:40.694Z,21.51
2018-04-28T11:13:07.112Z,21.64
2018-04-28T11:15:33.492Z,22.26
2018-04-28T11:17:59.904Z,21.84
2018-04-28T11:20:26.323Z,21.11
2018-04-28T11:22:52.795Z,21.28
2018-04-28T11:25:19.193Z,21.44
2018-04-28T11:27:45.589Z,21.36
2018-04-28T11:30:12.729Z,21.13
2018-04-28T11:32:39.483Z,21.33
2018-04-28T11:35:06.604Z,21.49
2018-04-28T11:37:32.969Z,21.83
2018-04-28T11:39:59.462Z,21.45
2018-04-28T11:42:25.881Z,21.89
2018-04-28T11:44:52.312Z,22.42
2018-04-28T11:47:18.856Z,22.16
2018-04-28T11:49:45.269Z,22.32
2018-04-28T11:52:11.702Z,22.75
2018-04-28T11:54:38.398Z,22.66
2018-04-28T11:57:04.794Z,22.47
2018-04-28T11:59:31.192Z,22.39
2018-04-28T12:01:57.687Z,23.01
2018-04-28T12:04:24.958Z,22.50
2018-04-28T12:06:51.485Z,23.13
2018-04-28T12:09:19.088Z,23.11
2018-04-28T12:11:45.573Z,23.71
2018-04-28T12:14:12.778Z,23.50
2018-04-28T12:16:39.266Z,22.93
2018-04-28T12:19:06.565Z,22.67
2018-04-28T12:21:33.776Z,23.20
2018-04-28T12:24:00.218Z,23.35
2018-04-28T12:26:26.622Z,22.80
2018-04-28T12:28:53.771Z,23.79
2018-04-28T12:31:21.111Z,23.07
2018-04-28T12:33:47.504Z,22.79
2018-04-28T12:36:13.904Z,23.05
2018-04-28T12:38:41.361Z,23.17
2018-04-28T12:41:08.546Z,23.53
2018-04-28T12:43:34.969Z,23.52
2018-04-28T12:46:01.371Z,23.43
2018-04-28T12:48:27.767Z,23.43
2018-04-28T12:50:54.166Z,23.78
2018-04-28T12:53:20.538Z,23.30
2018-04-28T12:55:47.657Z,23.43
2018-04-28T12:58:14.038Z,23.70
2018-04-28T13:00:41.227Z,23.59
2018-04-28T13:03:07.703Z,23.60
2018-04-28T13:05:34.162Z,23.45
2018-04-28T13:08:01.292Z,23.67
2018-04-28T13:10:27.739Z,23.10
2018-04-28T13:12:55.213Z,23.34
2018-04-28T13:15:22.402Z,24.05
2018-04-28T13:17:48.803Z,24.97
2018-04-28T13:20:15.160Z,26.20
2018-04-28T13:22:41.638Z,26.76
2018-04-28T13:25:08.145Z,28.18
2018-04-28T13:27:34.646Z,28.91
2018-04-28T13:30:01.088Z,29.85
2018-04-28T13:32:27.588Z,30.02
2018-04-28T13:34:54.692Z,31.03
2018-04-28T13:37:21.348Z,31.21
2018-04-28T13:39:48.512Z,31.43
2018-04-28T13:42:14.910Z,31.27
2018-04-28T13:44:41.360Z,31.02
2018-04-28T13:47:07.822Z,31.49
2018-04-28T13:49:34.962Z,30.21
2018-04-28T13:52:01.466Z,29.40
2018-04-28T13:54:27.892Z,29.85
2018-04-28T13:56:54.307Z,31.65
2018-04-28T13:59:20.761Z,31.97
2018-04-28T14:01:47.156Z,33.05
2018-04-28T14:04:13.531Z,32.67
2018-04-28T14:06:39.931Z,31.24
2018-04-28T14:09:06.399Z,30.94
2018-04-28T14:11:32.833Z,31.23
2018-04-28T14:13:59.251Z,33.30
2018-04-28T14:16:25.745Z,34.54
2018-04-28T14:18:52.170Z,34.56
2018-04-28T14:21:19.650Z,33.21
2018-04-28T14:23:46.054Z,31.29
2018-04-28T14:26:13.205Z,30.88
2018-04-28T14:28:40.484Z,29.57
2018-04-28T14:31:06.900Z,29.84
2018-04-28T14:33:33.333Z,29.64
2018-04-28T14:36:00.471Z,30.64
2018-04-28T14:38:27.807Z,30.72
2018-04-28T14:40:54.225Z,29.56
2018-04-28T14:43:20.679Z,30.36
2018-04-28T14:45:47.341Z,31.82
2018-04-28T14:48:13.733Z,34.48
2018-04-28T14:50:40.110Z,35.31
2018-04-28T14:53:07.520Z,34.08
2018-04-28T14:55:34.201Z,33.29
2018-04-28T14:58:01.346Z,32.18
2018-04-28T15:00:28.525Z,32.70
2018-04-28T15:02:54.987Z,33.40
2018-04-28T15:05:21.352Z,33.35
2018-04-28T15:07:48.828Z,33.63
2018-04-28T15:10:15.357Z,33.20
2018-04-28T15:12:42.541Z,33.18
2018-04-28T15:15:09.265Z,33.00
2018-04-28T15:17:35.723Z,33.09
2018-04-28T15:20:02.159Z,32.38
2018-04-28T15:22:28.676Z,32.89
2018-04-28T15:24:55.156Z,31.89
2018-04-28T15:27:21.900Z,33.23
2018-04-28T15:29:49.040Z,31.60
2018-04-28T15:32:15.446Z,32.39
2018-04-28T15:34:42.132Z,30.86
2018-04-28T15:37:09.355Z,31.72
2018-04-28T15:39:35.885Z,31.51
2018-04-28T15:42:02.249Z,30.36
2018-04-28T15:44:29.573Z,30.39
2018-04-28T15:46:55.998Z,31.30
2018-04-28T15:49:22.907Z,32.54
2018-04-28T15:51:49.352Z,30.71
2018-04-28T15:54:15.917Z,30.05
2018-04-28T15:56:42.470Z,30.40
2018-04-28T15:59:09.070Z,30.97
2018-04-28T16:01:35.672Z,29.98
2018-04-28T16:04:02.074Z,29.97
2018-04-28T16:06:28.610Z,31.62
2018-04-28T16:08:55.080Z,29.77
2018-04-28T16:11:22.207Z,28.46
2018-04-28T16:13:49.339Z,27.66
2018-04-28T16:16:15.734Z,25.91
2018-04-28T16:18:42.113Z,25.15
2018-04-28T16:21:08.501Z,25.02
2018-04-28T16:23:34.849Z,25.13
2018-04-28T16:26:01.237Z,25.84
2018-04-28T16:28:27.866Z,26.18
2018-04-28T16:30:54.231Z,25.77
2018-04-28T16:33:20.685Z,25.62
2018-04-28T16:35:47.165Z,25.37
2018-04-28T16:38:13.580Z,24.83
2018-04-28T16:40:41.323Z,24.96
2018-04-28T16:43:07.888Z,24.92
2018-04-28T16:45:35.167Z,26.97
2018-04-28T16:48:01.631Z,27.47
2018-04-28T16:50:28.362Z,29.20
2018-04-28T16:52:54.696Z,30.06
2018-04-28T16:55:21.118Z,30.69
2018-04-28T16:57:52.797Z,30.76
2018-04-28T17:00:19.483Z,30.07
2018-04-28T17:02:46.618Z,29.61
2018-04-28T17:05:13.194Z,29.02
2018-04-28T17:07:39.661Z,29.06
2018-04-28T17:10:06.206Z,27.81
2018-04-28T17:12:32.595Z,27.44
2018-04-28T17:14:59.005Z,26.06
2018-04-28T17:17:44.516Z,24.22
2018-04-28T17:20:10.903Z,23.30
2018-04-28T17:22:38.181Z,22.70
2018-04-28T17:25:04.655Z,22.06
2018-04-28T17:27:31.024Z,22.01
2018-04-28T17:29:58.185Z,21.30
2018-04-28T17:32:24.565Z,21.23
2018-04-28T17:34:50.988Z,21.17
2018-04-28T17:37:17.369Z,20.87
2018-04-28T17:39:44.489Z,20.71
2018-04-28T17:42:10.875Z,20.68
2018-04-28T17:44:38.125Z,20.51
2018-04-28T17:47:06.691Z,20.25
2018-04-28T17:49:33.821Z,20.18
2018-04-28T17:52:00.728Z,20.22
2018-04-28T17:54:27.425Z,20.04
2018-04-28T17:56:54.579Z,19.84
2018-04-28T17:59:20.958Z,19.65
2018-04-28T18:01:51.014Z,19.63
2018-04-28T18:04:17.713Z,19.54
2018-04-28T18:06:44.408Z,19.34
2018-04-28T18:09:11.508Z,19.35
2018-04-28T18:11:38.105Z,19.29
2018-04-28T18:14:05.013Z,19.28
2018-04-28T18:16:31.676Z,19.10
2018-04-28T18:18:58.198Z,19.06
2018-04-28T18:21:25.393Z,19.02
2018-04-28T18:23:51.797Z,18.95
2018-04-28T18:26:18.376Z,18.78
2018-04-28T18:28:46.291Z,18.72
2018-04-28T18:31:13.410Z,18.80
2018-04-28T18:33:41.305Z,18.66
2018-04-28T18:36:08.588Z,18.59
2018-04-28T18:38:35.158Z,18.56
2018-04-28T18:41:01.618Z,18.58
2018-04-28T18:43:27.985Z,18.56
2018-04-28T18:45:54.406Z,18.50
2018-04-28T18:48:20.783Z,18.42
2018-04-28T18:50:47.473Z,18.52
2018-04-28T18:53:13.949Z,18.48
2018-04-28T18:55:40.572Z,18.41
2018-04-28T18:58:07.178Z,18.50
2018-04-28T19:00:33.673Z,18.42
2018-04-28T19:03:00.348Z,18.30
2018-04-28T19:05:26.894Z,18.26
2018-04-28T19:07:53.337Z,18.33
2018-04-28T19:10:20.798Z,18.37
2018-04-28T19:12:47.614Z,18.26
2018-04-28T19:15:14.853Z,18.15
2018-04-28T19:17:41.946Z,18.28
2018-04-28T19:20:08.513Z,18.29
2018-04-28T19:22:35.811Z,18.14
2018-04-28T19:25:02.528Z,18.21
2018-04-28T19:27:28.909Z,18.18
2018-04-28T19:29:55.403Z,18.10
2018-04-28T19:32:22.758Z,17.96
2018-04-28T19:34:50.140Z,17.99
2018-04-28T19:37:16.827Z,17.93
2018-04-28T19:39:44.060Z,17.92
2018-04-28T19:42:10.544Z,17.87
2018-04-28T19:44:37.092Z,17.84
2018-04-28T19:47:03.792Z,17.88
2018-04-28T19:49:30.890Z,17.95
2018-04-28T19:51:57.325Z,17.86
2018-04-28T19:54:23.784Z,17.80
2018-04-28T19:56:50.178Z,17.80
2018-04-28T19:59:16.635Z,17.72
2018-04-28T20:01:43.007Z,17.70
2018-04-28T20:04:11.325Z,17.68
2018-04-28T20:06:37.703Z,17.54
2018-04-28T20:09:05.011Z,17.51
2018-04-28T20:11:31.580Z,17.49
2018-04-28T20:13:57.957Z,17.50
2018-04-28T20:16:24.691Z,17.35
2018-04-28T20:18:51.164Z,17.25
2018-04-28T20:21:17.638Z,17.18
2018-04-28T20:24:02.412Z,16.99
2018-04-28T20:26:29.560Z,16.96
2018-04-28T20:28:56.679Z,17.00
2018-04-28T20:31:23.079Z,16.87
2018-04-28T20:33:49.749Z,16.96
2018-04-28T20:36:16.145Z,16.94
2018-04-28T20:38:42.697Z,16.85
2018-04-28T20:41:09.952Z,16.78
2018-04-28T20:43:36.599Z,16.62
2018-04-28T20:46:02.964Z,16.55
2018-04-28T20:48:29.713Z,16.62
2018-04-28T20:50:56.831Z,16.54
2018-04-28T20:53:23.378Z,16.54
2018-04-28T20:55:49.766Z,16.36
2018-04-28T20:58:16.278Z,16.35
2018-04-28T21:00:43.338Z,16.38
2018-04-28T21:03:09.710Z,16.34
2018-04-28T21:05:36.098Z,16.29
2018-04-28T21:08:02.456Z,16.19
2018-04-28T21:10:29.855Z,16.04
2018-04-28T21:12:56.342Z,15.98
2018-04-28T21:15:22.720Z,15.84
2018-04-28T21:17:49.071Z,15.73
2018-04-28T21:20:17.976Z,15.73
2018-04-28T21:22:45.696Z,15.64
2018-04-28T21:25:12.643Z,15.51
2018-04-28T21:27:39.012Z,15.42
2018-04-28T21:30:05.439Z,15.30
2018-04-28T21:32:31.789Z,15.24
2018-04-28T21:34:58.621Z,15.19
2018-04-28T21:37:25.038Z,15.09
2018-04-28T21:39:53.166Z,15.13
2018-04-28T21:42:20.973Z,15.09
2018-04-28T21:44:48.122Z,15.00
2018-04-28T21:47:15.590Z,14.90
2018-04-28T21:49:43.041Z,14.87
2018-04-28T21:52:10.129Z,14.81
2018-04-28T21:54:36.554Z,14.75
2018-04-28T21:57:02.920Z,14.64
2018-04-28T21:59:29.276Z,14.57
2018-04-28T22:01:56.372Z,14.55
2018-04-28T22:04:22.947Z,14.47
2018-04-28T22:06:50.794Z,14.36
2018-04-28T22:09:17.143Z,14.36
2018-04-28T22:11:43.636Z,14.31
2018-04-28T22:14:10.102Z,14.35
2018-04-28T22:16:36.505Z,14.33
2018-04-28T22:19:02.922Z,14.32
2018-04-28T22:21:29.296Z,14.31
2018-04-28T22:23:55.681Z,14.37
2018-04-28T22:26:22.026Z,14.48
2018-04-28T22:28:48.391Z,14.52
2018-04-28T22:31:15.064Z,14.50
2018-04-28T22:33:42.125Z,14.58
2018-04-28T22:36:08.540Z,14.63
2018-04-28T22:38:35.949Z,14.65
2018-04-28T22:41:02.322Z,14.75
2018-04-28T22:43:29.409Z,14.69
2018-04-28T22:45:55.811Z,14.59
2018-04-28T22:48:22.995Z,14.63
2018-04-28T22:50:49.387Z,14.60
2018-04-28T22:53:16.501Z,14.65
2018-04-28T22:55:42.865Z,14.74
2018-04-28T22:58:10.066Z,14.87
2018-04-28T23:00:40.556Z,14.77
2018-04-28T23:03:07.741Z,14.95
2018-04-28T23:05:34.453Z,15.07
2018-04-28T23:08:01.592Z,15.05
2018-04-28T23:10:28.673Z,14.93
2018-04-28T23:12:55.387Z,14.77
2018-04-28T23:15:21.743Z,14.71
2018-04-28T23:17:48.097Z,14.74
2018-04-28T23:20:14.572Z,14.77
2018-04-28T23:22:41.658Z,14.92
2018-04-28T23:25:08.067Z,14.94
2018-04-28T23:27:34.434Z,15.10
2018-04-28T23:30:00.838Z,15.01
2018-04-28T23:32:27.216Z,14.94
2018-04-28T23:34:53.616Z,14.91
2018-04-28T23:37:19.995Z,14.98
2018-04-28T23:39:47.895Z,15.00
2018-04-28T23:42:14.547Z,14.82
2018-04-28T23:44:40.966Z,14.74
2018-04-28T23:47:07.351Z,14.55
2018-04-28T23:49:34.029Z,14.48
2018-04-28T23:52:01.138Z,14.46
2018-04-28T23:54:27.536Z,14.49
2018-04-28T23:56:53.912Z,14.50
2018-04-28T23:59:20.285Z,14.25
